sensor_id;sensor_type;location;lat;lon;timestamp;pressure;altitude;pressure_sealevel;temperature;humidity
74627;BME280;63132;52.268;5.192;2023-08-24T00:00:40;101721.41;;;21.59;62.08
74627;BME280;63132;52.268;5.192;2023-08-24T00:03:06;101703.59;;;21.62;61.36
74627;BME280;63132;52.268;5.192;2023-08-24T00:05:35;101698.81;;;21.49;62.43
74627;BME280;63132;52.268;5.192;2023-08-24T00:08:07;101705.22;;;21.72;61.44
74627;BME280;63132;52.268;5.192;2023-08-24T00:10:34;101696.03;;;21.80;60.99
74627;BME280;63132;52.268;5.192;2023-08-24T00:12:59;101696.72;;;21.94;60.71
74627;BME280;63132;52.268;5.192;2023-08-24T00:15:25;101695.63;;;21.91;60.51
74627;BME280;63132;52.268;5.192;2023-08-24T00:17:50;101690.34;;;21.71;60.28
74627;BME280;63132;52.268;5.192;2023-08-24T00:20:15;101687.56;;;21.80;61.86
74627;BME280;63132;52.268;5.192;2023-08-24T00:22:41;101690.13;;;21.88;61.17
74627;BME280;63132;52.268;5.192;2023-08-24T00:25:07;101687.44;;;21.84;62.11
74627;BME280;63132;52.268;5.192;2023-08-24T00:27:33;101690.41;;;22.11;60.36
74627;BME280;63132;52.268;5.192;2023-08-24T00:29:58;101681.63;;;22.09;60.52
74627;BME280;63132;52.268;5.192;2023-08-24T00:32:24;101671.78;;;22.14;60.40
74627;BME280;63132;52.268;5.192;2023-08-24T00:34:49;101665.63;;;22.06;60.21
74627;BME280;63132;52.268;5.192;2023-08-24T00:37:24;101660.16;;;21.81;61.78
74627;BME280;63132;52.268;5.192;2023-08-24T00:39:49;101673.19;;;21.88;61.74
74627;BME280;63132;52.268;5.192;2023-08-24T00:42:14;101674.47;;;21.96;60.63
74627;BME280;63132;52.268;5.192;2023-08-24T00:44:40;101663.22;;;22.05;60.51
74627;BME280;63132;52.268;5.192;2023-08-24T00:47:07;101655.00;;;22.10;60.67
74627;BME280;63132;52.268;5.192;2023-08-24T00:49:33;101648.69;;;22.06;60.88
74627;BME280;63132;52.268;5.192;2023-08-24T00:52:00;101657.69;;;21.83;61.03
74627;BME280;63132;52.268;5.192;2023-08-24T00:54:25;101650.84;;;22.02;60.98
74627;BME280;63132;52.268;5.192;2023-08-24T00:56:52;101653.97;;;21.95;61.69
74627;BME280;63132;52.268;5.192;2023-08-24T00:59:17;101659.13;;;21.97;60.93
74627;BME280;63132;52.268;5.192;2023-08-24T01:01:44;101674.63;;;21.92;61.74
74627;BME280;63132;52.268;5.192;2023-08-24T01:04:10;101667.19;;;22.07;60.41
74627;BME280;63132;52.268;5.192;2023-08-24T01:06:36;101661.22;;;22.05;60.81
74627;BME280;63132;52.268;5.192;2023-08-24T01:09:02;101664.41;;;21.86;62.22
74627;BME280;63132;52.268;5.192;2023-08-24T01:11:53;101659.97;;;22.06;60.82
74627;BME280;63132;52.268;5.192;2023-08-24T01:14:41;101655.25;;;22.03;60.85
74627;BME280;63132;52.268;5.192;2023-08-24T01:17:13;101658.84;;;21.73;63.00
74627;BME280;63132;52.268;5.192;2023-08-24T01:22:23;101655.34;;;22.13;60.97
74627;BME280;63132;52.268;5.192;2023-08-24T01:27:40;101660.09;;;22.03;62.14
74627;BME280;63132;52.268;5.192;2023-08-24T01:30:06;101662.78;;;22.06;61.67
74627;BME280;63132;52.268;5.192;2023-08-24T01:32:34;101660.06;;;22.25;61.37
74627;BME280;63132;52.268;5.192;2023-08-24T01:35:02;101661.19;;;22.27;61.37
74627;BME280;63132;52.268;5.192;2023-08-24T01:37:28;101669.38;;;22.44;60.66
74627;BME280;63132;52.268;5.192;2023-08-24T01:40:06;101676.41;;;22.39;60.47
74627;BME280;63132;52.268;5.192;2023-08-24T01:42:59;101671.88;;;22.42;61.20
74627;BME280;63132;52.268;5.192;2023-08-24T01:45:29;101671.56;;;22.39;61.21
74627;BME280;63132;52.268;5.192;2023-08-24T01:47:55;101661.91;;;22.19;61.59
74627;BME280;63132;52.268;5.192;2023-08-24T01:50:22;101648.50;;;22.41;61.72
74627;BME280;63132;52.268;5.192;2023-08-24T01:52:49;101652.75;;;22.36;62.47
74627;BME280;63132;52.268;5.192;2023-08-24T01:55:18;101655.09;;;22.47;62.07
74627;BME280;63132;52.268;5.192;2023-08-24T01:57:43;101645.84;;;22.37;62.66
74627;BME280;63132;52.268;5.192;2023-08-24T02:00:09;101647.50;;;22.17;63.95
74627;BME280;63132;52.268;5.192;2023-08-24T02:02:35;101639.34;;;22.19;62.91
74627;BME280;63132;52.268;5.192;2023-08-24T02:05:01;101623.34;;;22.16;63.11
74627;BME280;63132;52.268;5.192;2023-08-24T02:07:27;101623.53;;;22.21;63.13
74627;BME280;63132;52.268;5.192;2023-08-24T02:09:53;101615.13;;;21.99;63.57
74627;BME280;63132;52.268;5.192;2023-08-24T02:12:18;101620.13;;;21.95;63.86
74627;BME280;63132;52.268;5.192;2023-08-24T02:14:44;101625.88;;;22.23;63.20
74627;BME280;63132;52.268;5.192;2023-08-24T02:17:09;101624.88;;;22.07;63.95
74627;BME280;63132;52.268;5.192;2023-08-24T02:19:35;101631.41;;;21.95;63.28
74627;BME280;63132;52.268;5.192;2023-08-24T02:22:00;101625.22;;;22.09;63.66
74627;BME280;63132;52.268;5.192;2023-08-24T02:24:25;101617.94;;;21.99;64.05
74627;BME280;63132;52.268;5.192;2023-08-24T02:26:51;101603.69;;;22.03;63.95
74627;BME280;63132;52.268;5.192;2023-08-24T02:29:16;101599.41;;;21.89;64.96
74627;BME280;63132;52.268;5.192;2023-08-24T02:31:42;101593.91;;;21.86;63.33
74627;BME280;63132;52.268;5.192;2023-08-24T02:34:07;101598.09;;;21.72;63.65
74627;BME280;63132;52.268;5.192;2023-08-24T02:36:32;101599.84;;;21.78;64.37
74627;BME280;63132;52.268;5.192;2023-08-24T02:38:59;101594.28;;;21.66;64.59
74627;BME280;63132;52.268;5.192;2023-08-24T02:41:25;101606.91;;;21.52;64.70
74627;BME280;63132;52.268;5.192;2023-08-24T02:43:51;101585.75;;;21.47;65.51
74627;BME280;63132;52.268;5.192;2023-08-24T02:46:16;101588.19;;;21.98;63.52
74627;BME280;63132;52.268;5.192;2023-08-24T02:48:43;101588.91;;;22.30;62.58
74627;BME280;63132;52.268;5.192;2023-08-24T02:51:10;101589.50;;;22.16;63.26
74627;BME280;63132;52.268;5.192;2023-08-24T02:53:35;101576.97;;;21.45;64.66
74627;BME280;63132;52.268;5.192;2023-08-24T02:56:02;101571.19;;;21.80;64.33
74627;BME280;63132;52.268;5.192;2023-08-24T02:58:28;101569.50;;;21.29;64.88
74627;BME280;63132;52.268;5.192;2023-08-24T03:00:54;101560.28;;;21.29;65.58
74627;BME280;63132;52.268;5.192;2023-08-24T03:03:19;101559.72;;;21.21;66.05
74627;BME280;63132;52.268;5.192;2023-08-24T03:06:05;101563.44;;;21.31;65.28
74627;BME280;63132;52.268;5.192;2023-08-24T03:08:31;101572.72;;;21.19;65.40
74627;BME280;63132;52.268;5.192;2023-08-24T03:10:59;101569.13;;;20.96;65.62
74627;BME280;63132;52.268;5.192;2023-08-24T03:13:24;101564.34;;;21.06;65.88
74627;BME280;63132;52.268;5.192;2023-08-24T03:15:50;101557.13;;;21.05;65.46
74627;BME280;63132;52.268;5.192;2023-08-24T03:18:17;101552.47;;;21.11;64.81
74627;BME280;63132;52.268;5.192;2023-08-24T03:20:44;101552.16;;;20.87;66.45
74627;BME280;63132;52.268;5.192;2023-08-24T03:23:10;101544.72;;;20.93;65.90
74627;BME280;63132;52.268;5.192;2023-08-24T03:25:36;101543.06;;;20.83;66.13
74627;BME280;63132;52.268;5.192;2023-08-24T03:28:03;101536.63;;;20.61;67.00
74627;BME280;63132;52.268;5.192;2023-08-24T03:30:28;101531.78;;;20.83;65.67
74627;BME280;63132;52.268;5.192;2023-08-24T03:32:54;101521.84;;;20.91;65.98
74627;BME280;63132;52.268;5.192;2023-08-24T03:35:19;101532.19;;;20.94;65.03
74627;BME280;63132;52.268;5.192;2023-08-24T03:37:45;101526.41;;;20.98;65.55
74627;BME280;63132;52.268;5.192;2023-08-24T03:40:11;101518.19;;;20.82;66.00
74627;BME280;63132;52.268;5.192;2023-08-24T03:42:37;101526.41;;;20.98;65.04
74627;BME280;63132;52.268;5.192;2023-08-24T03:45:02;101526.56;;;20.94;65.98
74627;BME280;63132;52.268;5.192;2023-08-24T03:47:28;101529.69;;;20.96;65.45
74627;BME280;63132;52.268;5.192;2023-08-24T03:49:53;101528.78;;;20.78;65.82
74627;BME280;63132;52.268;5.192;2023-08-24T03:52:20;101527.72;;;20.84;66.19
74627;BME280;63132;52.268;5.192;2023-08-24T03:54:45;101525.16;;;20.77;67.10
74627;BME280;63132;52.268;5.192;2023-08-24T03:57:11;101529.56;;;20.78;65.74
74627;BME280;63132;52.268;5.192;2023-08-24T03:59:36;101524.75;;;20.79;66.25
74627;BME280;63132;52.268;5.192;2023-08-24T04:02:02;101523.53;;;20.67;67.28
74627;BME280;63132;52.268;5.192;2023-08-24T04:04:30;101527.31;;;20.51;66.18
74627;BME280;63132;52.268;5.192;2023-08-24T04:06:55;101525.91;;;20.68;66.52
74627;BME280;63132;52.268;5.192;2023-08-24T04:09:21;101522.22;;;20.59;67.19
74627;BME280;63132;52.268;5.192;2023-08-24T04:11:47;101523.00;;;20.59;65.96
74627;BME280;63132;52.268;5.192;2023-08-24T04:14:12;101529.97;;;20.89;65.39
74627;BME280;63132;52.268;5.192;2023-08-24T04:16:38;101527.47;;;20.91;65.31
74627;BME280;63132;52.268;5.192;2023-08-24T04:19:04;101528.72;;;20.68;66.63
74627;BME280;63132;52.268;5.192;2023-08-24T04:21:29;101528.19;;;20.61;67.67
74627;BME280;63132;52.268;5.192;2023-08-24T04:23:54;101539.91;;;20.81;65.54
74627;BME280;63132;52.268;5.192;2023-08-24T04:26:20;101528.91;;;20.74;66.86
74627;BME280;63132;52.268;5.192;2023-08-24T04:28:45;101534.09;;;20.76;66.51
74627;BME280;63132;52.268;5.192;2023-08-24T04:31:10;101531.06;;;20.92;65.52
74627;BME280;63132;52.268;5.192;2023-08-24T04:33:36;101529.47;;;21.13;65.26
74627;BME280;63132;52.268;5.192;2023-08-24T04:36:02;101530.16;;;20.95;66.07
74627;BME280;63132;52.268;5.192;2023-08-24T04:38:31;101525.44;;;20.92;65.83
74627;BME280;63132;52.268;5.192;2023-08-24T04:40:56;101519.38;;;20.93;66.48
74627;BME280;63132;52.268;5.192;2023-08-24T04:43:23;101526.22;;;20.92;65.37
74627;BME280;63132;52.268;5.192;2023-08-24T04:45:50;101528.72;;;20.90;66.04
74627;BME280;63132;52.268;5.192;2023-08-24T04:48:19;101526.31;;;20.80;67.01
74627;BME280;63132;52.268;5.192;2023-08-24T04:50:45;101525.56;;;21.10;65.45
74627;BME280;63132;52.268;5.192;2023-08-24T04:53:17;101528.28;;;21.23;64.63
74627;BME280;63132;52.268;5.192;2023-08-24T04:55:44;101520.91;;;21.38;65.53
74627;BME280;63132;52.268;5.192;2023-08-24T04:58:10;101525.44;;;21.45;64.41
74627;BME280;63132;52.268;5.192;2023-08-24T05:00:37;101522.66;;;21.23;65.46
74627;BME280;63132;52.268;5.192;2023-08-24T05:03:03;101527.25;;;21.29;64.85
74627;BME280;63132;52.268;5.192;2023-08-24T05:05:30;101526.34;;;21.11;66.29
74627;BME280;63132;52.268;5.192;2023-08-24T05:07:56;101534.06;;;21.41;65.69
74627;BME280;63132;52.268;5.192;2023-08-24T05:10:22;101522.22;;;21.55;65.40
74627;BME280;63132;52.268;5.192;2023-08-24T05:12:47;101517.84;;;21.54;65.38
74627;BME280;63132;52.268;5.192;2023-08-24T05:15:15;101519.69;;;21.48;65.00
74627;BME280;63132;52.268;5.192;2023-08-24T05:17:41;101503.00;;;21.63;65.17
74627;BME280;63132;52.268;5.192;2023-08-24T05:20:07;101496.00;;;21.77;64.32
74627;BME280;63132;52.268;5.192;2023-08-24T05:22:36;101484.66;;;21.59;64.49
74627;BME280;63132;52.268;5.192;2023-08-24T05:25:01;101474.03;;;21.63;64.48
74627;BME280;63132;52.268;5.192;2023-08-24T05:27:27;101483.56;;;21.65;63.84
74627;BME280;63132;52.268;5.192;2023-08-24T05:29:52;101486.56;;;21.71;64.85
74627;BME280;63132;52.268;5.192;2023-08-24T05:32:18;101479.38;;;21.70;63.92
74627;BME280;63132;52.268;5.192;2023-08-24T05:34:45;101473.38;;;21.59;65.02
74627;BME280;63132;52.268;5.192;2023-08-24T05:37:10;101476.28;;;21.86;64.67
74627;BME280;63132;52.268;5.192;2023-08-24T05:39:35;101474.41;;;21.83;64.83
74627;BME280;63132;52.268;5.192;2023-08-24T05:42:01;101468.00;;;21.92;63.44
74627;BME280;63132;52.268;5.192;2023-08-24T05:44:26;101462.94;;;21.68;64.20
74627;BME280;63132;52.268;5.192;2023-08-24T05:46:51;101471.91;;;22.03;63.58
74627;BME280;63132;52.268;5.192;2023-08-24T05:49:17;101468.94;;;21.98;64.22
74627;BME280;63132;52.268;5.192;2023-08-24T05:51:42;101472.47;;;21.71;64.67
74627;BME280;63132;52.268;5.192;2023-08-24T05:54:07;101467.03;;;22.04;64.14
74627;BME280;63132;52.268;5.192;2023-08-24T05:56:32;101461.56;;;21.91;63.57
74627;BME280;63132;52.268;5.192;2023-08-24T05:58:58;101459.25;;;22.26;63.47
74627;BME280;63132;52.268;5.192;2023-08-24T06:01:24;101454.22;;;22.49;62.77
74627;BME280;63132;52.268;5.192;2023-08-24T06:03:50;101459.56;;;22.47;62.15
74627;BME280;63132;52.268;5.192;2023-08-24T06:06:15;101465.84;;;22.51;63.43
74627;BME280;63132;52.268;5.192;2023-08-24T06:08:42;101460.94;;;22.79;61.71
74627;BME280;63132;52.268;5.192;2023-08-24T06:11:07;101450.13;;;22.68;62.31
74627;BME280;63132;52.268;5.192;2023-08-24T06:13:33;101436.38;;;22.33;62.73
74627;BME280;63132;52.268;5.192;2023-08-24T06:15:58;101438.09;;;22.58;63.17
74627;BME280;63132;52.268;5.192;2023-08-24T06:18:24;101429.44;;;22.62;62.53
74627;BME280;63132;52.268;5.192;2023-08-24T06:20:49;101430.34;;;22.86;61.65
74627;BME280;63132;52.268;5.192;2023-08-24T06:23:18;101423.13;;;22.95;62.15
74627;BME280;63132;52.268;5.192;2023-08-24T06:25:44;101424.25;;;22.88;61.58
74627;BME280;63132;52.268;5.192;2023-08-24T06:28:10;101415.91;;;22.84;62.59
74627;BME280;63132;52.268;5.192;2023-08-24T06:30:42;101413.00;;;22.51;62.25
74627;BME280;63132;52.268;5.192;2023-08-24T06:33:08;101407.91;;;22.92;61.33
74627;BME280;63132;52.268;5.192;2023-08-24T06:35:36;101409.75;;;23.04;61.83
74627;BME280;63132;52.268;5.192;2023-08-24T06:38:03;101428.34;;;22.87;62.74
74627;BME280;63132;52.268;5.192;2023-08-24T06:40:29;101419.63;;;23.00;61.79
74627;BME280;63132;52.268;5.192;2023-08-24T06:42:54;101414.38;;;23.16;61.43
74627;BME280;63132;52.268;5.192;2023-08-24T06:45:20;101405.22;;;22.98;61.77
74627;BME280;63132;52.268;5.192;2023-08-24T06:47:45;101405.13;;;23.16;61.55
74627;BME280;63132;52.268;5.192;2023-08-24T06:50:11;101403.28;;;23.13;62.40
74627;BME280;63132;52.268;5.192;2023-08-24T06:52:37;101410.88;;;23.64;60.99
74627;BME280;63132;52.268;5.192;2023-08-24T06:55:02;101398.44;;;23.70;60.21
74627;BME280;63132;52.268;5.192;2023-08-24T06:57:29;101394.69;;;23.64;60.96
74627;BME280;63132;52.268;5.192;2023-08-24T06:59:54;101389.22;;;23.85;60.63
74627;BME280;63132;52.268;5.192;2023-08-24T07:02:20;101391.06;;;23.40;60.66
74627;BME280;63132;52.268;5.192;2023-08-24T07:04:45;101394.25;;;24.19;59.07
74627;BME280;63132;52.268;5.192;2023-08-24T07:07:10;101396.22;;;24.28;58.24
74627;BME280;63132;52.268;5.192;2023-08-24T07:09:36;101397.47;;;24.36;59.21
74627;BME280;63132;52.268;5.192;2023-08-24T07:12:02;101393.75;;;25.04;56.52
74627;BME280;63132;52.268;5.192;2023-08-24T07:14:31;101390.25;;;25.29;56.78
74627;BME280;63132;52.268;5.192;2023-08-24T07:16:57;101405.22;;;25.85;55.10
74627;BME280;63132;52.268;5.192;2023-08-24T07:19:22;101385.22;;;25.94;54.74
74627;BME280;63132;52.268;5.192;2023-08-24T07:21:48;101378.09;;;25.64;54.91
74627;BME280;63132;52.268;5.192;2023-08-24T07:24:13;101378.81;;;25.24;55.72
74627;BME280;63132;52.268;5.192;2023-08-24T07:26:40;101378.78;;;24.89;56.88
74627;BME280;63132;52.268;5.192;2023-08-24T07:29:06;101383.56;;;25.12;55.95
74627;BME280;63132;52.268;5.192;2023-08-24T07:31:32;101386.81;;;25.25;56.79
74627;BME280;63132;52.268;5.192;2023-08-24T07:33:57;101381.53;;;25.88;54.19
74627;BME280;63132;52.268;5.192;2023-08-24T07:36:23;101373.72;;;25.83;54.60
74627;BME280;63132;52.268;5.192;2023-08-24T07:38:49;101370.78;;;25.37;56.21
74627;BME280;63132;52.268;5.192;2023-08-24T07:41:14;101371.28;;;25.56;55.84
74627;BME280;63132;52.268;5.192;2023-08-24T07:43:40;101368.53;;;26.02;55.05
74627;BME280;63132;52.268;5.192;2023-08-24T07:46:05;101369.38;;;26.08;55.17
74627;BME280;63132;52.268;5.192;2023-08-24T07:48:30;101371.22;;;26.37;53.24
74627;BME280;63132;52.268;5.192;2023-08-24T07:50:56;101376.66;;;26.15;53.19
74627;BME280;63132;52.268;5.192;2023-08-24T07:53:21;101369.84;;;26.07;53.45
74627;BME280;63132;52.268;5.192;2023-08-24T07:55:47;101370.44;;;26.63;52.22
74627;BME280;63132;52.268;5.192;2023-08-24T07:58:12;101370.47;;;27.37;51.53
74627;BME280;63132;52.268;5.192;2023-08-24T08:00:38;101370.44;;;27.85;49.62
74627;BME280;63132;52.268;5.192;2023-08-24T08:03:04;101370.72;;;27.39;49.88
74627;BME280;63132;52.268;5.192;2023-08-24T08:05:29;101369.09;;;27.70;49.58
74627;BME280;63132;52.268;5.192;2023-08-24T08:07:54;101363.78;;;27.94;49.27
74627;BME280;63132;52.268;5.192;2023-08-24T08:10:20;101355.63;;;27.65;50.14
74627;BME280;63132;52.268;5.192;2023-08-24T08:12:46;101347.44;;;27.89;49.90
74627;BME280;63132;52.268;5.192;2023-08-24T08:15:12;101337.22;;;27.60;50.36
74627;BME280;63132;52.268;5.192;2023-08-24T08:17:37;101327.16;;;27.65;50.88
74627;BME280;63132;52.268;5.192;2023-08-24T08:20:03;101329.22;;;27.64;49.84
74627;BME280;63132;52.268;5.192;2023-08-24T08:22:28;101344.34;;;27.87;50.10
74627;BME280;63132;52.268;5.192;2023-08-24T08:24:54;101345.78;;;27.66;48.77
74627;BME280;63132;52.268;5.192;2023-08-24T08:27:22;101336.09;;;28.11;47.85
74627;BME280;63132;52.268;5.192;2023-08-24T08:29:49;101331.19;;;28.29;48.71
74627;BME280;63132;52.268;5.192;2023-08-24T08:32:15;101336.16;;;28.45;47.67
74627;BME280;63132;52.268;5.192;2023-08-24T08:34:40;101336.44;;;28.64;47.44
74627;BME280;63132;52.268;5.192;2023-08-24T08:37:05;101334.81;;;29.24;46.06
74627;BME280;63132;52.268;5.192;2023-08-24T08:39:32;101331.75;;;28.94;46.65
74627;BME280;63132;52.268;5.192;2023-08-24T08:41:57;101341.53;;;29.27;45.60
74627;BME280;63132;52.268;5.192;2023-08-24T08:44:23;101326.00;;;29.22;45.86
74627;BME280;63132;52.268;5.192;2023-08-24T08:46:50;101326.84;;;28.61;46.07
74627;BME280;63132;52.268;5.192;2023-08-24T08:49:16;101323.50;;;28.91;46.58
74627;BME280;63132;52.268;5.192;2023-08-24T08:51:42;101312.06;;;28.85;44.58
74627;BME280;63132;52.268;5.192;2023-08-24T08:54:08;101314.75;;;29.58;45.04
74627;BME280;63132;52.268;5.192;2023-08-24T08:56:33;101317.75;;;29.77;44.96
74627;BME280;63132;52.268;5.192;2023-08-24T08:59:00;101314.00;;;29.93;43.68
74627;BME280;63132;52.268;5.192;2023-08-24T09:01:26;101309.59;;;29.51;44.18
74627;BME280;63132;52.268;5.192;2023-08-24T09:03:52;101306.78;;;29.87;43.61
74627;BME280;63132;52.268;5.192;2023-08-24T09:06:18;101290.84;;;29.61;43.73
74627;BME280;63132;52.268;5.192;2023-08-24T09:08:44;101282.31;;;29.97;42.91
74627;BME280;63132;52.268;5.192;2023-08-24T09:11:10;101273.19;;;30.10;42.09
74627;BME280;63132;52.268;5.192;2023-08-24T09:13:35;101269.88;;;29.53;43.27
74627;BME280;63132;52.268;5.192;2023-08-24T09:16:07;101248.44;;;29.76;43.77
74627;BME280;63132;52.268;5.192;2023-08-24T09:18:41;101255.13;;;29.90;43.06
74627;BME280;63132;52.268;5.192;2023-08-24T09:21:14;101257.72;;;29.88;43.58
74627;BME280;63132;52.268;5.192;2023-08-24T09:23:44;101263.13;;;29.45;43.59
74627;BME280;63132;52.268;5.192;2023-08-24T09:26:10;101264.50;;;29.27;44.05
74627;BME280;63132;52.268;5.192;2023-08-24T09:28:36;101269.31;;;29.60;43.29
74627;BME280;63132;52.268;5.192;2023-08-24T09:31:05;101270.28;;;29.74;44.25
74627;BME280;63132;52.268;5.192;2023-08-24T09:33:31;101267.47;;;29.63;44.77
74627;BME280;63132;52.268;5.192;2023-08-24T09:35:56;101272.75;;;29.42;44.59
74627;BME280;63132;52.268;5.192;2023-08-24T09:38:27;101272.59;;;29.75;44.30
74627;BME280;63132;52.268;5.192;2023-08-24T09:40:54;101257.47;;;29.86;44.81
74627;BME280;63132;52.268;5.192;2023-08-24T09:43:21;101248.91;;;29.34;45.96
74627;BME280;63132;52.268;5.192;2023-08-24T09:45:48;101235.47;;;29.29;45.94
74627;BME280;63132;52.268;5.192;2023-08-24T09:48:15;101230.03;;;29.19;46.28
74627;BME280;63132;52.268;5.192;2023-08-24T09:50:42;101213.38;;;29.35;47.00
74627;BME280;63132;52.268;5.192;2023-08-24T09:53:08;101216.41;;;29.01;47.25
74627;BME280;63132;52.268;5.192;2023-08-24T09:55:38;101219.16;;;29.23;46.36
74627;BME280;63132;52.268;5.192;2023-08-24T09:58:08;101208.16;;;29.50;46.61
74627;BME280;63132;52.268;5.192;2023-08-24T10:00:35;101213.97;;;29.74;46.42
74627;BME280;63132;52.268;5.192;2023-08-24T10:03:01;101222.44;;;29.39;46.52
74627;BME280;63132;52.268;5.192;2023-08-24T10:05:27;101235.19;;;29.32;46.67
74627;BME280;63132;52.268;5.192;2023-08-24T10:07:55;101235.81;;;29.66;46.43
74627;BME280;63132;52.268;5.192;2023-08-24T10:10:22;101222.84;;;29.65;46.23
74627;BME280;63132;52.268;5.192;2023-08-24T10:12:59;101230.00;;;29.77;45.59
74627;BME280;63132;52.268;5.192;2023-08-24T10:15:26;101234.41;;;29.78;46.03
74627;BME280;63132;52.268;5.192;2023-08-24T10:17:52;101229.53;;;29.73;47.04
74627;BME280;63132;52.268;5.192;2023-08-24T10:20:20;101234.38;;;29.84;46.54
74627;BME280;63132;52.268;5.192;2023-08-24T10:22:47;101237.94;;;29.55;46.47
74627;BME280;63132;52.268;5.192;2023-08-24T10:25:13;101247.69;;;29.18;48.14
74627;BME280;63132;52.268;5.192;2023-08-24T10:27:39;101246.50;;;28.80;49.09
74627;BME280;63132;52.268;5.192;2023-08-24T10:30:13;101249.09;;;28.72;50.19
74627;BME280;63132;52.268;5.192;2023-08-24T10:32:40;101254.78;;;28.78;49.60
74627;BME280;63132;52.268;5.192;2023-08-24T10:35:06;101256.34;;;28.67;49.58
74627;BME280;63132;52.268;5.192;2023-08-24T10:37:32;101252.47;;;28.59;49.93
74627;BME280;63132;52.268;5.192;2023-08-24T10:39:59;101249.91;;;28.45;50.56
74627;BME280;63132;52.268;5.192;2023-08-24T10:42:25;101243.19;;;28.42;50.75
74627;BME280;63132;52.268;5.192;2023-08-24T10:44:52;101248.38;;;28.49;51.10
74627;BME280;63132;52.268;5.192;2023-08-24T10:49:44;101250.69;;;28.45;53.60
74627;BME280;63132;52.268;5.192;2023-08-24T10:52:36;101253.78;;;28.69;53.75
74627;BME280;63132;52.268;5.192;2023-08-24T10:55:03;101248.56;;;28.85;55.34
74627;BME280;63132;52.268;5.192;2023-08-24T10:57:39;101248.03;;;28.75;55.25
74627;BME280;63132;52.268;5.192;2023-08-24T11:00:11;101245.28;;;29.33;54.40
74627;BME280;63132;52.268;5.192;2023-08-24T11:02:47;101235.16;;;29.38;53.58
74627;BME280;63132;52.268;5.192;2023-08-24T11:05:24;101227.06;;;29.47;52.76
74627;BME280;63132;52.268;5.192;2023-08-24T11:08:14;101230.09;;;29.14;53.49
74627;BME280;63132;52.268;5.192;2023-08-24T11:13:13;101219.09;;;29.82;53.07
74627;BME280;63132;52.268;5.192;2023-08-24T11:20:50;101213.69;;;30.08;49.92
74627;BME280;63132;52.268;5.192;2023-08-24T11:23:16;101214.91;;;30.48;50.02
74627;BME280;63132;52.268;5.192;2023-08-24T11:25:42;101214.72;;;30.65;47.23
74627;BME280;63132;52.268;5.192;2023-08-24T11:28:08;101213.13;;;30.45;48.46
74627;BME280;63132;52.268;5.192;2023-08-24T11:30:34;101210.91;;;29.67;48.93
74627;BME280;63132;52.268;5.192;2023-08-24T11:33:00;101204.72;;;30.53;48.82
74627;BME280;63132;52.268;5.192;2023-08-24T11:35:26;101198.19;;;30.58;47.89
74627;BME280;63132;52.268;5.192;2023-08-24T11:37:55;101194.00;;;30.83;47.14
74627;BME280;63132;52.268;5.192;2023-08-24T11:40:22;101187.16;;;30.92;47.06
74627;BME280;63132;52.268;5.192;2023-08-24T11:42:58;101190.34;;;29.74;49.67
74627;BME280;63132;52.268;5.192;2023-08-24T11:45:30;101186.19;;;30.05;49.24
74627;BME280;63132;52.268;5.192;2023-08-24T11:47:56;101196.53;;;29.37;52.35
74627;BME280;63132;52.268;5.192;2023-08-24T11:50:23;101200.72;;;27.88;54.24
74627;BME280;63132;52.268;5.192;2023-08-24T11:52:48;101199.69;;;28.47;53.01
74627;BME280;63132;52.268;5.192;2023-08-24T11:55:13;101180.72;;;27.54;55.48
74627;BME280;63132;52.268;5.192;2023-08-24T11:57:39;101166.03;;;27.78;55.52
74627;BME280;63132;52.268;5.192;2023-08-24T12:00:05;101163.66;;;28.55;53.94
74627;BME280;63132;52.268;5.192;2023-08-24T12:02:31;101172.97;;;28.61;53.20
74627;BME280;63132;52.268;5.192;2023-08-24T12:04:58;101169.38;;;28.44;53.79
74627;BME280;63132;52.268;5.192;2023-08-24T12:07:24;101169.13;;;27.92;55.01
74627;BME280;63132;52.268;5.192;2023-08-24T12:09:52;101154.13;;;27.69;55.31
74627;BME280;63132;52.268;5.192;2023-08-24T12:12:19;101143.50;;;26.82;57.70
74627;BME280;63132;52.268;5.192;2023-08-24T12:14:47;101145.38;;;27.01;58.05
74627;BME280;63132;52.268;5.192;2023-08-24T12:17:13;101134.50;;;26.94;58.53
74627;BME280;63132;52.268;5.192;2023-08-24T12:19:42;101124.56;;;27.21;57.01
74627;BME280;63132;52.268;5.192;2023-08-24T12:22:15;101132.88;;;27.53;56.23
74627;BME280;63132;52.268;5.192;2023-08-24T12:24:47;101130.81;;;27.59;56.15
74627;BME280;63132;52.268;5.192;2023-08-24T12:27:28;101123.59;;;27.69;56.26
74627;BME280;63132;52.268;5.192;2023-08-24T12:29:53;101136.00;;;28.11;54.71
74627;BME280;63132;52.268;5.192;2023-08-24T12:32:20;101134.47;;;27.82;55.64
74627;BME280;63132;52.268;5.192;2023-08-24T12:34:48;101121.69;;;28.50;53.34
74627;BME280;63132;52.268;5.192;2023-08-24T12:37:13;101112.69;;;28.24;53.73
74627;BME280;63132;52.268;5.192;2023-08-24T12:39:39;101103.16;;;27.76;55.26
74627;BME280;63132;52.268;5.192;2023-08-24T12:42:05;101086.34;;;27.73;55.46
74627;BME280;63132;52.268;5.192;2023-08-24T12:44:30;101071.13;;;26.71;58.46
74627;BME280;63132;52.268;5.192;2023-08-24T12:46:55;101074.31;;;26.90;57.89
74627;BME280;63132;52.268;5.192;2023-08-24T12:49:21;101072.47;;;26.87;58.29
74627;BME280;63132;52.268;5.192;2023-08-24T12:51:47;101063.31;;;27.76;55.71
74627;BME280;63132;52.268;5.192;2023-08-24T12:54:12;101054.97;;;28.06;54.82
74627;BME280;63132;52.268;5.192;2023-08-24T12:56:41;101054.41;;;28.41;52.93
74627;BME280;63132;52.268;5.192;2023-08-24T12:59:07;101041.31;;;27.60;55.33
74627;BME280;63132;52.268;5.192;2023-08-24T13:01:32;101045.38;;;28.15;53.57
74627;BME280;63132;52.268;5.192;2023-08-24T13:03:58;101031.47;;;27.61;55.04